Terminal Aerodrome Forecast
Issued by NWS Quad Cities IA IL

Home | Current Version | Previous Version | Text Only | Print | Product List | Glossary On
Versions: 1 2 3 4 5 6 7 8 9 10 11 12 13 14 15 16 17 18 19 20 21
000
FTUS43 KDVN 191519 AAD
TAFDBQ
TAF AMD
KDBQ 191519Z 1915/2012 16004KT 2SM BR OVC002
     FM191600 VRB03KT 5SM BR BKN008
     FM191700 VRB03KT P6SM SCT025
     FM192100 15009KT P6SM SCT150=

USA.gov is the U.S. government's official web portal to all federal, state and local government web resources and services.